Time;durP1;ratioP1;P1;durP2;ratioP2;P2;SDS_P1;SDS_P2;PMS_P1;PMS_P2;Temp;Humidity;BMP_temperature;BMP_pressure;BME280_temperature;BME280_humidity;BME280_pressure;Samples;Min_cycle;Max_cycle;Signal;HPM_P1;HPM_P2
2023/10/22 00:00:33;;;;;;;;;;;13.00;99.90;;;13.29;nan;99511.50;4979957;28;19971;-66
2023/10/22 00:03:00;;;;;;;;;;;13.00;99.90;;;13.26;nan;99510.03;4992684;28;19944;-66
2023/10/22 00:05:27;;;;;;;;;;;13.00;99.90;;;13.24;nan;99511.97;4995790;28;20408;-65
2023/10/22 00:07:54;;;;;;;;;;;13.00;99.90;;;13.26;nan;99514.44;4992876;28;19938;-66
2023/10/22 00:10:21;;;;;;;;;;;13.00;99.90;;;13.20;nan;99510.63;4993618;28;19970;-66
2023/10/22 00:12:48;;;;;;;;;;;13.00;99.90;;;13.14;nan;99503.38;4993630;28;19946;-65
2023/10/22 00:15:15;;;;;;;;;;;12.90;99.90;;;13.13;nan;99506.97;4990630;28;19939;-66
2023/10/22 00:17:43;;;;;;;;;;;12.90;99.90;;;13.06;nan;99514.63;4979952;28;20401;-66
2023/10/22 00:20:11;;;;;;;;;;;12.80;99.90;;;13.05;nan;99518.19;4989814;28;20349;-66
2023/10/22 00:22:37;;;;;;;;;;;12.80;99.90;;;12.97;nan;99523.34;4989831;28;19956;-66
2023/10/22 00:25:05;;;;;;;;;;;12.80;99.90;;;12.95;nan;99521.84;4990647;28;19939;-67
2023/10/22 00:27:32;;;;;;;;;;;12.70;99.90;;;12.95;nan;99519.25;4975211;28;20310;-66
2023/10/22 00:30:00;;;;;;;;;;;12.70;99.90;;;12.94;nan;99535.94;4979531;28;19949;-67
2023/10/22 00:32:27;;;;;;;;;;;12.70;99.90;;;12.92;nan;99532.66;4972630;28;19946;-66
2023/10/22 00:34:54;;;;;;;;;;;12.70;99.90;;;12.95;nan;99534.94;4974167;28;19986;-66
2023/10/22 00:37:21;;;;;;;;;;;12.70;99.90;;;12.95;nan;99537.56;4990445;28;19940;-66
2023/10/22 00:39:47;;;;;;;;;;;12.70;99.90;;;12.98;nan;99538.09;4992721;28;19960;-66
2023/10/22 00:42:14;;;;;;;;;;;12.70;99.90;;;12.95;nan;99542.78;4992568;28;19944;-66
2023/10/22 00:44:41;;;;;;;;;;;12.70;99.90;;;12.96;nan;99545.28;4989146;28;20768;-65
2023/10/22 00:47:14;;;;;;;;;;;12.70;99.90;;;12.97;nan;99546.09;4972936;28;19956;-66
2023/10/22 00:49:42;;;;;;;;;;;12.80;99.90;;;12.92;nan;99543.13;4976980;28;20432;-65
2023/10/22 00:52:11;;;;;;;;;;;12.70;99.90;;;12.87;nan;99540.13;4992138;28;19945;-66
2023/10/22 00:54:38;;;;;;;;;;;12.70;99.90;;;12.88;nan;99544.41;4986967;28;19958;-65
2023/10/22 00:57:06;;;;;;;;;;;12.60;99.90;;;12.83;nan;99544.84;4975700;28;19960;-66
2023/10/22 00:59:33;;;;;;;;;;;12.60;99.90;;;12.84;nan;99543.84;4987547;28;19972;-64
2023/10/22 01:02:00;;;;;;;;;;;12.60;99.90;;;12.84;nan;99543.84;4983376;28;20402;-66
2023/10/22 01:04:27;;;;;;;;;;;12.60;99.90;;;12.83;nan;99541.41;4989793;28;19931;-66
2023/10/22 01:06:53;;;;;;;;;;;12.60;99.90;;;12.84;nan;99545.69;4985063;28;19946;-65
2023/10/22 01:09:21;;;;;;;;;;;12.60;99.90;;;12.85;nan;99547.31;4988858;28;19954;-66
2023/10/22 01:12:04;;;;;;;;;;;12.60;99.90;;;12.86;nan;99551.59;4990768;28;20389;-66
2023/10/22 01:14:31;;;;;;;;;;;12.60;99.90;;;12.85;nan;99549.91;4988080;28;19934;-66
2023/10/22 01:16:58;;;;;;;;;;;12.60;99.90;;;12.86;nan;99559.44;4978064;28;19936;-66
2023/10/22 01:19:25;;;;;;;;;;;12.60;99.90;;;12.90;nan;99561.59;4990757;28;19960;-65
2023/10/22 01:21:52;;;;;;;;;;;12.70;99.90;;;12.89;nan;99559.13;4991465;28;19947;-66
2023/10/22 01:24:19;;;;;;;;;;;12.70;99.90;;;12.86;nan;99557.63;4990430;28;19940;-65
2023/10/22 01:26:46;;;;;;;;;;;12.60;99.90;;;12.82;nan;99556.28;4975714;28;19943;-66
2023/10/22 01:29:14;;;;;;;;;;;12.60;99.90;;;12.83;nan;99567.56;4980459;28;20109;-66
2023/10/22 01:31:41;;;;;;;;;;;12.60;99.90;;;12.82;nan;99574.59;4973436;28;19947;-66
2023/10/22 01:34:08;;;;;;;;;;;12.60;99.90;;;12.79;nan;99568.84;4995252;28;19940;-66
2023/10/22 01:36:35;;;;;;;;;;;12.60;99.90;;;12.77;nan;99568.19;4985951;28;19939;-66
2023/10/22 01:39:02;;;;;;;;;;;12.50;99.90;;;12.75;nan;99565.72;4976354;28;19947;-67
2023/10/22 01:41:29;;;;;;;;;;;12.50;99.90;;;12.74;nan;99566.69;4986581;28;19936;-65
2023/10/22 01:43:58;;;;;;;;;;;12.50;99.90;;;12.70;nan;99564.50;4986339;28;20325;-66
2023/10/22 01:46:25;;;;;;;;;;;12.50;99.90;;;12.68;nan;99572.50;4988070;28;19941;-66
2023/10/22 01:48:52;;;;;;;;;;;12.50;99.90;;;12.69;nan;99568.13;4988050;28;20312;-66
2023/10/22 01:51:18;;;;;;;;;;;12.50;99.90;;;12.69;nan;99575.97;4992084;28;20398;-67
2023/10/22 01:53:46;;;;;;;;;;;12.50;99.90;;;12.67;nan;99570.06;4990235;28;19940;-65
2023/10/22 01:56:13;;;;;;;;;;;12.40;99.90;;;12.64;nan;99562.50;4991467;28;19932;-66
2023/10/22 01:58:40;;;;;;;;;;;12.40;99.90;;;12.61;nan;99574.06;4989487;28;19947;-66
2023/10/22 02:01:07;;;;;;;;;;;12.40;99.90;;;12.60;nan;99574.22;4986677;28;19960;-66
2023/10/22 02:03:35;;;;;;;;;;;12.40;99.90;;;12.59;nan;99580.41;4990703;28;19938;-66
2023/10/22 02:06:09;;;;;;;;;;;12.40;99.90;;;12.60;nan;99582.06;4986704;28;20401;-66
2023/10/22 02:08:36;;;;;;;;;;;12.40;99.90;;;12.59;nan;99585.66;4990782;28;19950;-66
2023/10/22 02:11:03;;;;;;;;;;;12.40;99.90;;;12.57;nan;99595.44;4980192;28;20342;-66
2023/10/22 02:13:30;;;;;;;;;;;12.30;99.90;;;12.54;nan;99595.75;4982294;28;19944;-66
2023/10/22 02:15:57;;;;;;;;;;;12.30;99.90;;;12.55;nan;99600.84;4979193;28;19935;-66
2023/10/22 02:18:24;;;;;;;;;;;12.30;99.90;;;12.57;nan;99603.28;4977634;28;19942;-66
2023/10/22 02:20:59;;;;;;;;;;;12.30;99.90;;;12.57;nan;99609.34;4972366;28;20013;-64
2023/10/22 02:23:27;;;;;;;;;;;12.30;99.90;;;12.52;nan;99605.53;4971163;28;19941;-66
2023/10/22 02:25:54;;;;;;;;;;;12.30;99.90;;;12.51;nan;99609.94;4985477;28;20392;-66
2023/10/22 02:28:21;;;;;;;;;;;12.30;99.90;;;12.50;nan;99610.09;4985271;28;19937;-66
2023/10/22 02:30:48;;;;;;;;;;;12.30;99.90;;;12.45;nan;99607.94;4976899;28;19957;-65
2023/10/22 02:33:15;;;;;;;;;;;12.20;99.90;;;12.40;nan;99610.97;4971985;28;19943;-65
2023/10/22 02:35:43;;;;;;;;;;;12.20;99.90;;;12.35;nan;99610.59;4989512;28;19943;-66
2023/10/22 02:38:18;;;;;;;;;;;12.20;99.90;;;12.33;nan;99609.91;4975694;28;19936;-66
2023/10/22 02:40:49;;;;;;;;;;;12.10;99.90;;;12.29;nan;99608.56;4979790;28;19956;-66
2023/10/22 02:43:16;;;;;;;;;;;12.10;99.90;;;12.30;nan;99612.00;4986632;28;19948;-66
2023/10/22 02:45:50;;;;;;;;;;;12.10;99.90;;;12.27;nan;99610.50;4981685;28;19950;-65
2023/10/22 02:48:17;;;;;;;;;;;12.10;99.90;;;12.26;nan;99613.25;4977909;28;19942;-66
2023/10/22 02:50:45;;;;;;;;;;;12.00;99.90;;;12.24;nan;99615.19;4992243;28;19980;-66
2023/10/22 02:53:12;;;;;;;;;;;12.00;99.90;;;12.21;nan;99611.06;4979706;28;19938;-66
2023/10/22 02:55:39;;;;;;;;;;;12.00;99.90;;;12.18;nan;99610.56;4983304;28;19938;-66
2023/10/22 02:58:06;;;;;;;;;;;11.90;99.90;;;12.15;nan;99614.28;4992488;28;19934;-66
2023/10/22 03:00:33;;;;;;;;;;;11.90;99.90;;;12.15;nan;99616.06;4982702;28;20288;-66
2023/10/22 03:03:03;;;;;;;;;;;11.90;99.90;;;12.16;nan;99623.75;4986606;28;19942;-66
2023/10/22 03:05:34;;;;;;;;;;;11.90;99.90;;;12.17;nan;99619.34;4992191;28;20308;-66
2023/10/22 03:08:01;;;;;;;;;;;11.90;99.90;;;12.16;nan;99623.75;4984023;28;19936;-65
2023/10/22 03:10:28;;;;;;;;;;;11.90;99.90;;;12.17;nan;99622.81;4985940;28;19959;-66
2023/10/22 03:12:57;;;;;;;;;;;12.00;99.90;;;12.16;nan;99622.97;4992042;28;19938;-66
2023/10/22 03:15:24;;;;;;;;;;;11.90;99.90;;;12.15;nan;99622.13;4984852;28;20301;-66
2023/10/22 03:17:53;;;;;;;;;;;11.90;99.90;;;12.12;nan;99624.19;4980154;28;20004;-67
2023/10/22 03:20:22;;;;;;;;;;;11.90;99.90;;;12.11;nan;99620.78;4992674;28;20370;-67
2023/10/22 03:22:50;;;;;;;;;;;11.90;99.90;;;12.06;nan;99627.38;4991921;28;20317;-66
2023/10/22 03:25:17;;;;;;;;;;;11.80;99.90;;;12.05;nan;99630.97;4993921;28;19937;-66
2023/10/22 03:27:45;;;;;;;;;;;11.80;99.90;;;12.01;nan;99633.03;4990717;28;19995;-67
2023/10/22 03:30:13;;;;;;;;;;;11.80;99.90;;;12.05;nan;99644.84;4988554;28;19972;-66
2023/10/22 03:32:40;;;;;;;;;;;11.80;99.90;;;12.01;nan;99646.09;4975448;28;19943;-66
2023/10/22 03:35:08;;;;;;;;;;;11.80;99.90;;;12.01;nan;99645.31;4976855;28;19938;-66
2023/10/22 03:37:35;;;;;;;;;;;11.80;99.90;;;11.96;nan;99648.34;4984899;28;19939;-66
2023/10/22 03:40:03;;;;;;;;;;;11.70;99.90;;;11.94;nan;99649.44;4992781;28;20319;-66
2023/10/22 03:42:30;;;;;;;;;;;11.70;99.90;;;11.94;nan;99646.81;4994126;28;20407;-66
2023/10/22 03:44:57;;;;;;;;;;;11.70;99.90;;;11.92;nan;99657.44;4991619;28;19952;-66
2023/10/22 03:47:24;;;;;;;;;;;11.70;99.90;;;11.88;nan;99656.06;4993046;28;19935;-66
2023/10/22 03:49:51;;;;;;;;;;;11.70;99.90;;;11.92;nan;99660.06;4990460;28;20419;-65
2023/10/22 03:52:18;;;;;;;;;;;11.70;99.90;;;11.94;nan;99662.50;4993875;28;19948;-66
2023/10/22 03:54:46;;;;;;;;;;;11.70;99.90;;;11.95;nan;99658.91;4991144;28;19939;-65
2023/10/22 03:57:13;;;;;;;;;;;11.70;99.90;;;11.96;nan;99668.41;4992304;28;19948;-66
2023/10/22 03:59:40;;;;;;;;;;;11.70;99.90;;;12.01;nan;99666.22;4990904;28;19956;-65
2023/10/22 04:02:07;;;;;;;;;;;11.80;99.90;;;12.00;nan;99669.78;4980813;28;20305;-66
2023/10/22 04:04:33;;;;;;;;;;;11.80;99.90;;;12.02;nan;99688.75;4978063;28;20395;-66
2023/10/22 04:07:02;;;;;;;;;;;11.80;99.90;;;11.99;nan;99689.06;4992565;28;19994;-66
2023/10/22 04:09:29;;;;;;;;;;;11.80;99.90;;;11.98;nan;99696.06;4988944;28;19958;-66
2023/10/22 04:11:56;;;;;;;;;;;11.70;99.90;;;11.98;nan;99696.06;4993003;28;19942;-66
2023/10/22 04:14:23;;;;;;;;;;;11.80;99.90;;;11.99;nan;99708.16;4989847;28;19973;-66
2023/10/22 04:16:50;;;;;;;;;;;11.80;99.90;;;12.00;nan;99707.22;4991232;28;20368;-66
2023/10/22 04:19:17;;;;;;;;;;;11.80;99.90;;;11.99;nan;99707.38;4991850;28;19952;-67
2023/10/22 04:21:44;;;;;;;;;;;11.80;99.90;;;11.98;nan;99710.94;4991025;28;19958;-67
2023/10/22 04:24:11;;;;;;;;;;;11.80;99.90;;;11.97;nan;99719.75;4973997;28;19940;-65
2023/10/22 04:26:38;;;;;;;;;;;11.80;99.90;;;11.95;nan;99721.66;4988478;28;19944;-67
2023/10/22 04:29:05;;;;;;;;;;;11.70;99.90;;;11.93;nan;99728.81;4989559;28;19975;-67
2023/10/22 04:31:33;;;;;;;;;;;11.70;99.90;;;11.91;nan;99728.97;4973918;28;19960;-66
2023/10/22 04:34:00;;;;;;;;;;;11.70;99.90;;;11.91;nan;99734.19;4983361;28;19934;-67
2023/10/22 04:36:27;;;;;;;;;;;11.70;99.90;;;11.87;nan;99727.59;4989426;28;19947;-66
2023/10/22 04:38:54;;;;;;;;;;;11.70;99.90;;;11.81;nan;99728.16;4972904;28;19961;-66
2023/10/22 04:41:20;;;;;;;;;;;11.60;99.90;;;11.83;nan;99725.41;4986421;28;19946;-67
2023/10/22 04:43:47;;;;;;;;;;;11.60;99.90;;;11.86;nan;99738.19;4989207;28;19950;-66
2023/10/22 04:46:15;;;;;;;;;;;11.60;99.90;;;11.86;nan;99736.38;4983751;28;19951;-66
2023/10/22 04:48:41;;;;;;;;;;;11.70;99.90;;;11.88;nan;99739.72;4972509;28;19935;-66
2023/10/22 04:51:09;;;;;;;;;;;11.70;99.90;;;11.86;nan;99732.97;4978158;28;19951;-66
2023/10/22 04:53:36;;;;;;;;;;;11.70;99.90;;;11.83;nan;99731.47;4982654;28;19937;-66
2023/10/22 04:56:04;;;;;;;;;;;11.70;99.90;;;11.82;nan;99729.78;4982555;28;20048;-66
2023/10/22 04:58:33;;;;;;;;;;;11.60;99.90;;;11.78;nan;99738.06;4992043;28;19934;-65
2023/10/22 05:01:00;;;;;;;;;;;11.60;99.90;;;11.74;nan;99737.50;4979280;28;20010;-66
2023/10/22 05:03:27;;;;;;;;;;;11.60;99.90;;;11.72;nan;99734.22;4982436;28;19977;-66
2023/10/22 05:05:55;;;;;;;;;;;11.50;99.90;;;11.68;nan;99733.69;4989265;28;19945;-67
2023/10/22 05:08:26;;;;;;;;;;;11.50;99.90;;;11.69;nan;99729.28;4988498;28;19942;-66
2023/10/22 05:10:53;;;;;;;;;;;11.50;99.90;;;11.66;nan;99729.53;4990911;28;19953;-67
2023/10/22 05:13:22;;;;;;;;;;;11.50;99.90;;;11.66;nan;99721.69;4989345;28;19944;-66
2023/10/22 05:15:50;;;;;;;;;;;11.50;99.90;;;11.64;nan;99726.22;4991185;28;19992;-66
2023/10/22 05:18:17;;;;;;;;;;;11.40;99.90;;;11.65;nan;99730.47;4989258;28;19944;-67
2023/10/22 05:20:44;;;;;;;;;;;11.50;99.90;;;11.66;nan;99729.53;4991033;28;19968;-67
2023/10/22 05:23:11;;;;;;;;;;;11.40;99.90;;;11.63;nan;99738.44;4984729;28;19940;-66
2023/10/22 05:25:38;;;;;;;;;;;11.50;99.90;;;11.63;nan;99735.00;4979057;28;19942;-66
2023/10/22 05:28:05;;;;;;;;;;;11.40;99.90;;;11.63;nan;99735.84;4990835;28;20000;-67
2023/10/22 05:30:32;;;;;;;;;;;11.40;99.90;;;11.60;nan;99741.38;4987635;28;19959;-66
2023/10/22 05:33:01;;;;;;;;;;;11.40;99.90;;;11.59;nan;99751.94;4988246;28;19939;-67
2023/10/22 05:35:28;;;;;;;;;;;11.40;99.90;;;11.61;nan;99750.84;4985948;28;20006;-67
2023/10/22 05:37:54;;;;;;;;;;;11.40;99.90;;;11.63;nan;99761.13;4991101;28;19959;-67
2023/10/22 05:40:21;;;;;;;;;;;11.40;99.90;;;11.62;nan;99760.34;4986636;28;19949;-67
2023/10/22 05:42:48;;;;;;;;;;;11.40;99.90;;;11.67;nan;99767.75;4989476;28;20407;-67
2023/10/22 05:45:15;;;;;;;;;;;11.50;99.90;;;11.71;nan;99769.16;4985604;28;20034;-66
2023/10/22 05:47:42;;;;;;;;;;;11.50;99.90;;;11.74;nan;99781.94;4997678;28;19995;-67
2023/10/22 05:50:09;;;;;;;;;;;11.50;99.90;;;11.73;nan;99777.69;4990902;28;19956;-67
2023/10/22 05:52:36;;;;;;;;;;;11.50;99.90;;;11.73;nan;99772.47;4990707;28;19939;-66
2023/10/22 05:55:03;;;;;;;;;;;11.60;99.90;;;11.75;nan;99777.53;4990775;28;19948;-66
2023/10/22 05:57:31;;;;;;;;;;;11.50;99.90;;;11.72;nan;99781.25;4992662;28;19954;-66
2023/10/22 05:59:58;;;;;;;;;;;11.50;99.90;;;11.74;nan;99788.94;4987102;28;19964;-67
2023/10/22 06:02:25;;;;;;;;;;;11.50;99.90;;;11.79;nan;99792.81;4992585;28;19954;-66
2023/10/22 06:04:52;;;;;;;;;;;11.60;99.90;;;11.83;nan;99796.81;4991166;28;19935;-67
2023/10/22 06:07:19;;;;;;;;;;;11.60;99.90;;;11.88;nan;99789.38;4995782;28;20367;-67
2023/10/22 06:09:47;;;;;;;;;;;11.70;99.90;;;11.94;nan;99793.22;4993831;28;19997;-66
2023/10/22 06:12:14;;;;;;;;;;;11.70;99.90;;;11.99;nan;99798.88;4990496;28;19948;-67
2023/10/22 06:14:41;;;;;;;;;;;11.70;99.90;;;12.08;nan;99805.84;4981578;28;19944;-66
2023/10/22 06:17:08;;;;;;;;;;;11.90;99.90;;;12.15;nan;99805.16;4971553;28;19944;-65
2023/10/22 06:19:35;;;;;;;;;;;11.90;99.90;;;12.24;nan;99813.97;4986382;28;19954;-66
2023/10/22 06:22:02;;;;;;;;;;;12.00;99.90;;;12.29;nan;99804.72;4985992;28;20007;-65
2023/10/22 06:24:29;;;;;;;;;;;12.10;99.90;;;12.35;nan;99809.38;4971574;28;20818;-67
2023/10/22 06:26:56;;;;;;;;;;;12.10;99.90;;;12.52;nan;99812.25;4982358;28;19942;-66
2023/10/22 06:29:23;;;;;;;;;;;12.30;99.90;;;12.80;nan;99821.81;4986358;28;19954;-66
2023/10/22 06:31:50;;;;;;;;;;;12.50;99.90;;;13.16;nan;99823.59;4982604;28;20442;-66
2023/10/22 06:34:17;;;;;;;;;;;12.90;99.90;;;13.55;nan;99830.22;4989719;28;19938;-66
2023/10/22 06:36:44;;;;;;;;;;;13.20;99.90;;;13.77;nan;99824.56;4986588;28;19983;-66
2023/10/22 06:39:11;;;;;;;;;;;13.50;99.90;;;13.98;nan;99824.25;4978884;28;20099;-66
2023/10/22 06:41:38;;;;;;;;;;;13.70;99.90;;;14.06;nan;99831.34;4985651;28;19951;-66
2023/10/22 06:44:05;;;;;;;;;;;13.80;99.90;;;13.97;nan;99818.16;4987331;28;19945;-66
2023/10/22 06:46:32;;;;;;;;;;;13.80;99.90;;;13.92;nan;99837.97;4975970;28;19939;-65
2023/10/22 06:48:59;;;;;;;;;;;13.70;99.90;;;13.78;nan;99844.53;4978045;28;19965;-66
2023/10/22 06:51:26;;;;;;;;;;;13.60;99.90;;;13.61;nan;99845.34;4977599;28;20408;-66
2023/10/22 06:53:53;;;;;;;;;;;13.50;99.90;;;13.48;nan;99851.94;4979488;28;20428;-66
2023/10/22 06:56:19;;;;;;;;;;;13.30;99.90;;;13.37;nan;99845.13;4988205;28;20413;-66
2023/10/22 06:58:46;;;;;;;;;;;13.20;99.90;;;13.32;nan;99847.34;4990767;28;19951;-66
2023/10/22 07:01:14;;;;;;;;;;;13.10;99.90;;;13.36;nan;99851.31;4983040;28;20405;-66
2023/10/22 07:03:46;;;;;;;;;;;13.20;99.90;;;13.40;nan;99857.91;4975994;28;19950;-68
2023/10/22 07:06:53;;;;;;;;;;;13.20;99.90;;;13.50;75.81;99856.03;5022762;28;19944;-66
2023/10/22 07:09:20;;;;;;;;;;;13.30;99.90;;;13.68;75.78;99850.84;5053232;28;19963;-66
2023/10/22 07:11:47;;;;;;;;;;;13.40;99.90;;;14.16;74.10;99850.47;5024485;28;20018;-66
2023/10/22 07:14:14;;;;;;;;;;;13.80;99.90;;;14.84;71.26;99854.06;5010287;28;19944;-66
2023/10/22 07:16:41;;;;;;;;;;;14.50;99.90;;;15.12;69.56;99856.34;5013489;28;20376;-66
2023/10/22 07:19:08;;;;;;;;;;;14.80;99.90;;;15.10;69.28;99858.31;5026721;28;19965;-66
2023/10/22 07:21:35;;;;;;;;;;;14.90;99.90;;;14.90;70.34;99872.66;5022387;28;19943;-66
2023/10/22 07:24:02;;;;;;;;;;;14.80;99.90;;;14.92;70.83;99864.63;5010064;28;19977;-67
2023/10/22 07:26:29;;;;;;;;;;;14.70;99.90;;;15.12;69.68;99860.78;5018043;28;19998;-66
2023/10/22 07:28:56;;;;;;;;;;;15.00;99.90;;;15.30;69.24;99877.28;5017736;28;20506;-65
2023/10/22 07:31:23;;;;;;;;;;;15.10;99.90;;;15.33;69.37;99869.88;5002689;28;19946;-65
2023/10/22 07:33:50;;;;;;;;;;;15.20;99.90;;;15.28;69.04;99874.81;5019740;28;19963;-66
2023/10/22 07:36:17;;;;;;;;;;;15.10;99.90;;;15.21;69.95;99883.47;5020807;28;19950;-66
2023/10/22 07:38:44;;;;;;;;;;;15.00;99.90;;;15.19;69.78;99878.38;5017182;28;19943;-66
2023/10/22 07:41:15;;;;;;;;;;;15.00;99.90;;;15.32;69.49;99884.03;5018546;28;19937;-67
2023/10/22 07:43:42;;;;;;;;;;;15.10;99.90;;;15.42;69.68;99889.13;5025233;28;19946;-66
2023/10/22 07:46:10;;;;;;;;;;;15.20;99.90;;;15.53;68.94;99892.34;5022277;28;20442;-66
2023/10/22 07:48:37;;;;;;;;;;;15.30;99.90;;;15.90;68.26;99893.75;5001211;28;19939;-66
2023/10/22 07:51:12;;;;;;;;;;;15.60;99.90;;;16.58;66.10;99900.41;5008046;28;19953;-66
2023/10/22 07:53:39;;;;;;;;;;;16.20;99.90;;;17.25;63.87;99895.63;5016516;28;20283;-66
2023/10/22 07:56:06;;;;;;;;;;;16.80;99.90;;;18.03;60.72;99899.88;5021490;28;20405;-66
2023/10/22 07:58:34;;;;;;;;;;;17.60;99.90;;;18.21;59.18;99900.38;4951290;28;20079;-65
2023/10/22 08:01:46;;;;;;;239.90;154.97;;;18.00;99.90;;;17.95;59.18;99904.38;4995373;27;20919;-65
2023/10/22 08:04:13;;;;;;;417.57;170.40;;;17.80;99.90;;;17.53;61.19;99905.59;5022561;28;20687;-66
2023/10/22 08:06:40;;;;;;;463.17;161.50;;;17.50;99.90;;;17.42;61.66;99905.13;5021481;28;20633;-66
2023/10/22 08:09:07;;;;;;;488.73;149.90;;;17.30;99.90;;;17.26;61.83;99908.66;5005165;28;21226;-66
2023/10/22 08:11:34;;;;;;;543.90;160.83;;;17.10;99.90;;;17.20;62.56;99905.88;5015099;28;20633;-66
2023/10/22 08:14:00;;;;;;;597.10;162.13;;;17.00;99.90;;;17.15;62.97;99909.00;5017380;28;21154;-65
2023/10/22 08:16:27;;;;;;;641.03;194.90;;;16.90;99.90;;;17.33;62.50;99911.41;5027733;28;20617;-65
2023/10/22 08:18:54;;;;;;;640.57;175.80;;;17.10;99.90;;;17.60;61.68;99914.47;5004419;28;20685;-66
2023/10/22 08:21:22;;;;;;;675.43;213.50;;;17.30;99.90;;;17.80;61.26;99914.88;5012976;28;20667;-65
2023/10/22 08:23:49;;;;;;;676.50;214.63;;;17.50;99.90;;;17.73;60.93;99913.91;5036820;28;20638;-64
2023/10/22 08:26:16;;;;;;;667.93;195.60;;;17.50;99.90;;;17.60;60.99;99918.91;5018929;28;20724;-65
2023/10/22 08:28:43;;;;;;;665.63;189.50;;;17.50;99.90;;;17.61;61.71;99917.94;5025594;28;20729;-66
2023/10/22 08:31:10;;;;;;;668.27;206.83;;;17.40;99.90;;;17.54;61.47;99919.59;5037363;28;20737;-65
2023/10/22 08:33:38;;;;;;;670.93;214.47;;;17.40;99.90;;;17.56;61.39;99938.72;5004545;28;20744;-66
2023/10/22 08:36:08;;;;;;;659.60;192.60;;;17.40;99.90;;;17.50;62.22;99940.25;5006824;28;20629;-65
2023/10/22 08:38:35;;;;;;;661.03;192.80;;;17.30;99.90;;;17.54;61.82;99936.25;5004051;28;20625;-64
2023/10/22 08:41:06;;;;;;;649.17;178.53;;;17.30;99.90;;;17.63;62.08;99942.31;5008022;28;20668;-66
2023/10/22 08:43:33;;;;;;;649.43;181.40;;;17.40;99.90;;;17.93;61.79;99935.41;5022094;28;20636;-65
2023/10/22 08:46:01;;;;;;;665.20;206.60;;;17.60;99.90;;;18.00;60.44;99945.09;5016017;28;20647;-65
2023/10/22 08:48:31;;;;;;;649.90;178.60;;;17.70;99.90;;;17.88;60.78;99941.19;5009448;28;20633;-65
2023/10/22 08:51:00;;;;;;;645.57;174.63;;;17.70;99.90;;;17.53;61.62;99946.97;5017660;28;20717;-65
2023/10/22 08:53:27;;;;;;;656.23;198.23;;;17.40;99.90;;;17.41;62.53;99956.22;5036528;28;20625;-65
2023/10/22 08:55:56;;;;;;;649.23;187.90;;;17.20;99.90;;;17.37;62.46;99952.28;5046914;28;20627;-66
2023/10/22 08:58:23;;;;;;;652.10;193.03;;;17.20;99.90;;;17.42;62.57;99949.97;5025281;28;21022;-64
2023/10/22 09:00:50;;;;;;;641.33;169.73;;;17.20;99.90;;;17.72;61.86;99957.94;5011792;28;20707;-66
2023/10/22 09:03:20;;;;;;;651.03;189.40;;;17.40;99.90;;;17.77;61.69;99960.06;5009398;28;20712;-65
2023/10/22 09:05:48;;;;;;;650.60;185.63;;;17.50;99.90;;;17.65;61.99;99962.25;5004928;28;20745;-65
2023/10/22 09:08:15;;;;;;;636.83;162.80;;;17.50;99.90;;;17.53;62.45;99960.97;5023418;28;20625;-65
2023/10/22 09:10:43;;;;;;;650.43;190.50;;;17.30;99.90;;;17.36;62.82;99963.81;5016389;28;20649;-65
2023/10/22 09:13:15;;;;;;;647.47;185.70;;;17.20;99.90;;;17.24;63.36;99966.00;5005487;28;20669;-66
2023/10/22 09:15:54;;;;;;;631.33;159.33;;;17.00;99.90;;;17.08;64.02;99970.47;5012347;28;20621;-66
2023/10/22 09:18:21;;;;;;;630.60;158.67;;;16.90;99.90;;;17.04;64.31;99970.81;4998268;28;20642;-66
2023/10/22 09:20:48;;;;;;;646.37;182.40;;;16.80;99.90;;;17.00;64.74;99977.41;5035303;28;20669;-66
2023/10/22 09:23:20;;;;;;;634.53;161.77;;;16.70;99.90;;;16.97;65.07;99969.03;4998556;28;20673;-67
2023/10/22 09:25:50;;;;;;;630.97;162.57;;;16.70;99.90;;;16.89;65.10;99977.75;5011006;28;20659;-66
2023/10/22 09:28:35;;;;;;;628.03;155.93;;;16.60;99.90;;;16.79;66.06;99971.00;5007105;28;20621;-65
2023/10/22 09:31:05;;;;;;;625.10;153.33;;;16.50;99.90;;;16.79;66.25;99977.09;4995766;28;20654;-65
2023/10/22 09:33:37;;;;;;;643.03;174.10;;;16.50;99.90;;;16.74;65.89;99974.13;4996977;28;20724;-66
2023/10/22 09:36:08;;;;;;;630.63;159.07;;;16.50;99.90;;;16.72;66.11;99984.00;5002380;28;20634;-64
2023/10/22 09:38:47;;;;;;;639.03;172.23;;;16.50;99.90;;;16.74;66.32;99976.75;4988427;28;21069;-66
2023/10/22 09:41:25;;;;;;;630.73;161.03;;;16.40;99.90;;;16.89;66.52;99980.38;4998281;28;20695;-65
2023/10/22 09:44:02;;;;;;;632.20;169.00;;;16.50;99.90;;;17.05;65.56;99984.81;5001345;28;21188;-65
2023/10/22 09:46:32;;;;;;;640.07;179.03;;;16.70;99.90;;;17.08;65.68;99981.03;4999131;28;20629;-65
2023/10/22 09:49:03;;;;;;;630.67;161.87;;;16.80;99.90;;;17.00;66.18;99977.41;5008796;28;20714;-66
2023/10/22 09:51:35;;;;;;;639.67;175.57;;;16.70;99.90;;;16.98;66.35;99979.38;4999322;28;21037;-65
2023/10/22 09:54:05;;;;;;;639.27;183.07;;;16.70;99.90;;;16.93;66.70;99983.50;4991513;28;20629;-66
2023/10/22 09:56:49;;;;;;;629.30;164.30;;;16.60;99.90;;;16.88;66.87;99981.38;4993974;28;21070;-66
2023/10/22 09:59:23;;;;;;;626.90;157.13;;;16.60;99.90;;;16.84;67.39;99987.16;5011377;28;20653;-67
2023/10/22 10:01:51;;;;;;;623.47;158.30;;;16.50;99.90;;;16.78;67.81;99985.97;4995426;28;20715;-65
2023/10/22 10:04:20;;;;;;;626.73;160.20;;;16.50;99.90;;;16.84;67.47;99987.16;4997384;28;21414;-65
2023/10/22 10:06:48;;;;;;;622.73;152.90;;;16.50;99.90;;;16.84;67.07;99992.41;5000805;28;21246;-65
2023/10/22 10:09:15;;;;;;;628.57;164.13;;;16.50;99.90;;;16.84;67.28;99980.06;4987747;28;21097;-65
2023/10/22 10:11:43;;;;;;;631.03;165.37;;;16.50;99.90;;;16.84;66.87;99990.59;5024233;28;20669;-64
2023/10/22 10:14:33;;;;;;;631.73;164.27;;;16.50;99.90;;;16.85;67.22;99991.41;5001056;28;20733;-65
2023/10/22 10:17:03;;;;;;;636.50;169.57;;;16.50;99.90;;;16.86;66.30;99991.25;5011378;28;21629;-65
2023/10/22 10:19:30;;;;;;;630.97;165.30;;;16.60;99.90;;;16.88;66.46;99985.81;5012838;28;20648;-65
2023/10/22 10:21:57;;;;;;;628.87;162.93;;;16.60;99.90;;;16.89;66.59;99996.19;5002799;28;20669;-65
2023/10/22 10:24:26;;;;;;;635.87;176.80;;;16.60;99.90;;;16.92;66.73;99993.22;5034575;28;20683;-63
2023/10/22 10:26:56;;;;;;;639.17;178.40;;;16.60;99.90;;;16.94;65.88;99993.88;5001559;28;20620;-64
2023/10/22 10:29:30;;;;;;;628.93;162.67;;;16.60;99.90;;;16.94;65.82;99996.53;4993802;28;21290;-63
2023/10/22 10:32:15;;;;;;;631.23;161.30;;;16.60;99.90;;;16.94;66.06;100001.78;4989847;28;21003;-65
2023/10/22 10:34:48;;;;;;;642.33;186.43;;;16.60;99.90;;;16.96;66.37;100007.72;4988692;28;20648;-64
2023/10/22 10:37:19;;;;;;;628.43;165.07;;;16.60;99.90;;;16.96;66.43;99999.81;4978214;28;20937;-65
2023/10/22 10:39:47;;;;;;;636.93;179.07;;;16.60;99.90;;;16.90;65.81;99999.66;5023728;28;20612;-64
2023/10/22 10:42:30;;;;;;;631.73;171.47;;;16.60;99.90;;;16.87;65.83;100005.25;5017804;28;20709;-65
2023/10/22 10:44:57;;;;;;;616.33;151.50;;;16.60;99.90;;;16.91;65.40;100004.75;4991356;28;20700;-65
2023/10/22 10:47:24;;;;;;;632.80;171.37;;;16.60;99.90;;;16.91;65.09;100004.75;4994384;28;21183;-65
2023/10/22 10:50:11;;;;;;;618.47;151.10;;;16.60;99.90;;;16.99;64.73;100007.38;4992601;28;20609;-64
2023/10/22 10:52:41;;;;;;;626.20;161.03;;;16.70;99.90;;;17.07;64.84;100006.56;4997532;28;20629;-64
2023/10/22 10:55:15;;;;;;;618.07;151.03;;;16.70;99.90;;;17.13;64.91;100003.25;5002128;28;20657;-64
2023/10/22 10:57:46;;;;;;;621.53;155.00;;;16.80;99.90;;;17.24;64.53;100009.97;4986609;28;20589;-64
2023/10/22 11:00:20;;;;;;;636.47;177.43;;;16.90;99.90;;;17.34;64.03;100007.97;4995477;28;20665;-64
2023/10/22 11:02:50;;;;;;;623.33;153.40;;;17.00;99.90;;;17.48;63.52;100005.47;4998309;28;20636;-65
2023/10/22 11:05:30;;;;;;;632.67;170.23;;;17.10;99.90;;;17.62;62.49;100002.16;4995349;28;20617;-66
2023/10/22 11:07:57;;;;;;;626.57;161.20;;;17.30;99.90;;;17.71;62.03;100001.16;4994525;28;20603;-66